createdAt,value
2022-09-26T00:00:37.277Z,46.03
2022-09-26T00:04:58.961Z,51.25
2022-09-26T00:09:00.835Z,45.78
2022-09-26T00:13:02.558Z,41.20
2022-09-26T00:17:04.565Z,41.70
2022-09-26T00:21:09.109Z,45.15
2022-09-26T00:25:11.028Z,48.22
2022-09-26T00:29:14.335Z,47.47
2022-09-26T00:33:17.036Z,51.50
2022-09-26T00:37:18.687Z,40.80
2022-09-26T00:41:22.407Z,40.60
2022-09-26T00:45:30.054Z,43.03
2022-09-26T00:49:38.537Z,49.43
2022-09-26T00:53:45.932Z,46.85
2022-09-26T00:57:53.812Z,52.75
2022-09-26T01:01:58.703Z,44.90
2022-09-26T01:06:01.428Z,53.03
2022-09-26T01:10:06.040Z,54.30
2022-09-26T01:14:12.321Z,48.88
2022-09-26T01:18:14.261Z,54.35
2022-09-26T01:23:03.029Z,59.80
2022-09-26T01:27:39.920Z,63.85
2022-09-26T01:32:26.472Z,58.53
2022-09-26T01:37:17.298Z,57.33
2022-09-26T01:41:48.354Z,54.25
2022-09-26T01:45:59.042Z,57.53
2022-09-26T01:50:16.364Z,66.75
2022-09-26T01:54:24.036Z,60.65
2022-09-26T01:58:35.979Z,59.60
2022-09-26T02:02:42.348Z,63.75
2022-09-26T02:06:52.888Z,64.97
2022-09-26T02:11:17.197Z,67.05
2022-09-26T02:15:21.257Z,61.97
2022-09-26T02:19:29.296Z,61.83
2022-09-26T02:23:31.305Z,66.10
2022-09-26T02:27:33.204Z,58.92
2022-09-26T02:31:42.971Z,59.42
2022-09-26T02:35:57.439Z,63.17
2022-09-26T02:40:02.611Z,52.00
2022-09-26T02:44:32.164Z,52.60
2022-09-26T02:48:52.982Z,46.25
2022-09-26T02:53:06.945Z,53.75
2022-09-26T02:57:45.752Z,43.13
2022-09-26T03:02:21.662Z,50.10
2022-09-26T03:06:46.602Z,43.10
2022-09-26T03:10:50.115Z,45.60
2022-09-26T03:14:58.460Z,48.88
2022-09-26T03:23:11.907Z,54.75
2022-09-26T03:27:14.769Z,48.13
2022-09-26T03:31:17.104Z,48.75
2022-09-26T03:35:26.368Z,54.05
2022-09-26T03:39:28.267Z,54.58
2022-09-26T03:43:43.664Z,47.25
2022-09-26T03:47:45.727Z,46.15
2022-09-26T03:51:48.006Z,53.70
2022-09-26T03:55:50.239Z,55.78
2022-09-26T03:59:51.997Z,43.55
2022-09-26T04:03:56.245Z,45.67
2022-09-26T04:07:59.925Z,45.45
2022-09-26T04:12:01.878Z,54.67
2022-09-26T04:16:05.881Z,41.53
2022-09-26T04:20:09.679Z,42.38
2022-09-26T04:24:16.653Z,41.30
2022-09-26T04:28:18.799Z,52.45
2022-09-26T04:32:20.631Z,53.97
2022-09-26T04:36:59.337Z,42.70
2022-09-26T04:41:05.664Z,39.25
2022-09-26T04:45:08.401Z,40.95
2022-09-26T04:49:10.303Z,40.70
2022-09-26T04:53:12.271Z,45.05
2022-09-26T04:57:20.956Z,43.60
2022-09-26T05:01:23.249Z,45.13
2022-09-26T05:05:36.816Z,48.13
2022-09-26T05:09:40.017Z,41.20
2022-09-26T05:13:53.066Z,45.95
2022-09-26T05:17:59.921Z,45.75
2022-09-26T05:22:04.606Z,46.55
2022-09-26T05:26:20.044Z,50.47
2022-09-26T05:30:21.849Z,55.17
2022-09-26T05:34:26.066Z,52.13
2022-09-26T05:38:28.507Z,51.92
2022-09-26T05:42:30.814Z,55.42
2022-09-26T05:46:34.809Z,58.72
2022-09-26T05:50:44.098Z,47.15
2022-09-26T05:54:45.898Z,47.63
2022-09-26T05:59:06.485Z,45.20
2022-09-26T06:03:27.874Z,59.35
2022-09-26T06:07:43.077Z,49.70
2022-09-26T06:11:49.883Z,52.55
2022-09-26T06:15:52.639Z,54.22
2022-09-26T06:19:55.030Z,55.22
2022-09-26T06:23:57.052Z,55.50
2022-09-26T06:28:00.845Z,57.38
2022-09-26T06:32:04.965Z,56.28
2022-09-26T06:36:27.521Z,58.50
2022-09-26T06:40:29.733Z,58.35
2022-09-26T06:44:31.759Z,59.70
2022-09-26T06:48:50.820Z,63.58
2022-09-26T06:53:11.464Z,61.22
2022-09-26T06:57:15.325Z,61.83
2022-09-26T07:01:18.559Z,62.35
2022-09-26T07:05:31.176Z,56.60
2022-09-26T07:09:33.736Z,59.63
2022-09-26T07:13:47.723Z,59.55
2022-09-26T07:17:49.488Z,56.97
2022-09-26T07:22:06.692Z,63.15
2022-09-26T07:26:15.940Z,55.88
2022-09-26T07:30:19.413Z,55.63
2022-09-26T07:34:32.147Z,55.17
2022-09-26T07:38:34.164Z,52.00
2022-09-26T07:42:37.904Z,52.63
2022-09-26T07:46:58.743Z,57.45
2022-09-26T07:51:03.568Z,54.00
2022-09-26T07:55:24.590Z,50.70
2022-09-26T07:59:44.120Z,52.80
2022-09-26T08:04:06.362Z,55.38
2022-09-26T08:08:11.838Z,53.08
2022-09-26T08:12:51.970Z,50.75
2022-09-26T08:17:14.400Z,54.75
2022-09-26T08:21:16.732Z,54.55
2022-09-26T08:25:18.641Z,56.20
2022-09-26T08:29:27.599Z,58.40
2022-09-26T08:33:35.343Z,57.67
2022-09-26T08:37:37.316Z,57.13
2022-09-26T08:42:15.454Z,59.58
2022-09-26T08:46:55.086Z,59.17
2022-09-26T08:51:30.081Z,56.80
2022-09-26T08:55:39.957Z,57.85
2022-09-26T08:59:44.013Z,51.50
2022-09-26T09:04:18.346Z,51.47
2022-09-26T09:08:25.264Z,54.47
2022-09-26T09:13:05.376Z,53.60
2022-09-26T09:17:48.235Z,50.42
2022-09-26T09:22:30.592Z,46.50
2022-09-26T09:31:43.027Z,44.05
2022-09-26T09:36:18.733Z,43.20
2022-09-26T09:40:58.095Z,38.53
2022-09-26T09:45:09.450Z,38.75
2022-09-26T09:49:23.449Z,36.22
2022-09-26T09:53:28.152Z,35.38
2022-09-26T09:57:57.826Z,32.65
2022-09-26T10:02:13.376Z,31.05
2022-09-26T10:06:44.164Z,30.95
2022-09-26T10:10:59.011Z,31.00
2022-09-26T10:15:24.168Z,28.55
2022-09-26T10:19:45.196Z,28.08
2022-09-26T10:23:50.594Z,25.83
2022-09-26T10:28:24.766Z,22.73
2022-09-26T10:32:30.465Z,25.17
2022-09-26T10:36:52.947Z,22.80
2022-09-26T10:41:01.365Z,20.83
2022-09-26T10:45:15.921Z,18.90
2022-09-26T10:49:48.414Z,18.48
2022-09-26T10:54:43.950Z,18.42
2022-09-26T10:58:47.140Z,14.27
2022-09-26T11:02:52.302Z,12.18
2022-09-26T11:06:54.442Z,14.00
2022-09-26T11:11:12.643Z,14.75
2022-09-26T11:15:16.219Z,16.02
2022-09-26T11:19:28.153Z,17.42
2022-09-26T11:23:50.843Z,16.02
2022-09-26T11:28:14.974Z,15.65
2022-09-26T11:32:47.345Z,12.48
2022-09-26T11:37:45.321Z,12.75
2022-09-26T11:42:13.765Z,11.50
2022-09-26T11:46:47.540Z,9.88
2022-09-26T11:51:19.927Z,12.70
2022-09-26T11:55:45.220Z,12.43
2022-09-26T12:00:02.157Z,10.20
2022-09-26T12:04:21.624Z,10.38
2022-09-26T12:08:38.885Z,9.90
2022-09-26T12:13:13.674Z,7.70
2022-09-26T12:17:53.686Z,9.00
2022-09-26T12:22:42.066Z,11.77
2022-09-26T12:26:55.163Z,9.68
2022-09-26T12:31:00.503Z,7.53
2022-09-26T12:35:28.028Z,7.93
2022-09-26T12:39:49.515Z,8.93
2022-09-26T12:44:15.837Z,7.97
2022-09-26T12:48:29.699Z,8.45
2022-09-26T12:52:55.322Z,8.88
2022-09-26T12:57:09.356Z,10.55
2022-09-26T13:01:46.760Z,10.45
2022-09-26T13:06:11.594Z,11.02
2022-09-26T13:10:28.763Z,9.57
2022-09-26T13:14:57.308Z,10.07
2022-09-26T13:19:05.721Z,9.47
2022-09-26T13:23:26.349Z,8.50
2022-09-26T13:27:36.225Z,7.40
2022-09-26T13:32:03.151Z,8.57
2022-09-26T13:36:08.376Z,8.85
2022-09-26T13:40:33.163Z,8.77
2022-09-26T13:44:49.073Z,7.93
2022-09-26T13:49:15.227Z,8.15
2022-09-26T13:53:32.378Z,7.20
2022-09-26T13:57:45.701Z,7.32
2022-09-26T14:02:23.351Z,6.75
2022-09-26T14:06:29.094Z,6.05
2022-09-26T14:10:35.904Z,7.10
2022-09-26T14:14:42.865Z,7.75
2022-09-26T14:18:55.863Z,7.10
2022-09-26T14:22:58.324Z,7.38
2022-09-26T14:27:11.214Z,7.60
2022-09-26T14:31:25.040Z,6.53
2022-09-26T14:35:30.145Z,7.15
2022-09-26T14:39:42.135Z,7.35
2022-09-26T14:43:45.102Z,7.88
2022-09-26T14:47:56.862Z,6.68
2022-09-26T14:52:01.488Z,7.03
2022-09-26T14:56:14.503Z,6.72
2022-09-26T15:00:42.710Z,8.15
2022-09-26T15:04:59.213Z,8.13
2022-09-26T15:09:09.239Z,8.95
2022-09-26T15:13:22.773Z,9.20
2022-09-26T15:17:31.203Z,8.93
2022-09-26T15:21:51.770Z,8.55
2022-09-26T15:25:57.501Z,9.40
2022-09-26T15:30:07.155Z,8.68
2022-09-26T15:34:19.376Z,9.45
2022-09-26T15:38:23.880Z,10.70
2022-09-26T15:42:49.079Z,10.65
2022-09-26T15:46:51.499Z,12.30
2022-09-26T15:51:28.925Z,13.18
2022-09-26T15:55:34.223Z,12.85
2022-09-26T15:59:41.636Z,13.30
2022-09-26T16:03:52.605Z,13.95
2022-09-26T16:07:55.186Z,14.27
2022-09-26T16:12:00.579Z,14.45
2022-09-26T16:16:07.874Z,15.65
2022-09-26T16:20:09.557Z,15.70
2022-09-26T16:24:34.336Z,15.57
2022-09-26T16:28:42.558Z,15.85
2022-09-26T16:32:44.493Z,14.48
2022-09-26T16:36:46.262Z,14.10
2022-09-26T16:40:58.480Z,15.20
2022-09-26T16:45:05.522Z,16.27
2022-09-26T16:49:28.792Z,14.18
2022-09-26T16:53:31.041Z,15.73
2022-09-26T16:57:37.102Z,16.58
2022-09-26T17:01:53.936Z,14.85
2022-09-26T17:05:57.556Z,19.65
2022-09-26T17:09:59.231Z,19.23
2022-09-26T17:14:01.102Z,19.45
2022-09-26T17:18:06.095Z,22.27
2022-09-26T17:22:15.939Z,24.08
2022-09-26T17:26:21.818Z,20.75
2022-09-26T17:30:23.718Z,23.80
2022-09-26T17:34:28.322Z,23.33
2022-09-26T17:38:30.288Z,23.85
2022-09-26T17:42:32.108Z,24.55
2022-09-26T17:46:37.435Z,22.73
2022-09-26T17:50:39.895Z,23.13
2022-09-26T17:54:42.570Z,26.17
2022-09-26T17:58:45.515Z,33.20
2022-09-26T18:02:53.141Z,31.70
2022-09-26T18:06:58.657Z,33.42
2022-09-26T18:11:03.905Z,31.13
2022-09-26T18:15:06.053Z,30.77
2022-09-26T18:19:11.685Z,29.67
2022-09-26T18:23:20.978Z,32.47
2022-09-26T18:27:23.228Z,35.90
2022-09-26T18:31:30.743Z,36.38
2022-09-26T18:35:32.642Z,37.20
2022-09-26T18:39:34.778Z,27.15
2022-09-26T18:43:42.271Z,25.05
2022-09-26T18:47:45.108Z,18.05
2022-09-26T18:51:47.229Z,11.07
2022-09-26T18:56:07.910Z,6.85
2022-09-26T19:00:10.651Z,6.57
2022-09-26T19:04:17.811Z,5.32
2022-09-26T19:08:35.537Z,6.47
2022-09-26T19:12:39.554Z,6.35
2022-09-26T19:16:43.312Z,4.95
2022-09-26T19:20:45.139Z,5.63
2022-09-26T19:24:54.107Z,6.07
2022-09-26T19:28:58.165Z,6.60
2022-09-26T19:33:00.146Z,7.78
2022-09-26T19:37:03.188Z,7.95
2022-09-26T19:41:05.777Z,9.57
2022-09-26T19:45:09.744Z,9.73
2022-09-26T19:49:17.905Z,11.50
2022-09-26T19:53:22.519Z,10.47
2022-09-26T19:57:24.671Z,10.18
2022-09-26T20:01:27.407Z,13.85
2022-09-26T20:05:29.557Z,12.82
2022-09-26T20:09:31.432Z,13.82
2022-09-26T20:13:53.774Z,16.13
2022-09-26T20:17:58.383Z,14.35
2022-09-26T20:22:02.514Z,15.77
2022-09-26T20:26:04.309Z,16.42
2022-09-26T20:30:25.787Z,34.72
2022-09-26T20:34:28.253Z,35.25
2022-09-26T20:38:33.673Z,37.05
2022-09-26T20:42:38.299Z,42.45
2022-09-26T20:46:48.527Z,39.10
2022-09-26T20:50:51.110Z,39.78
2022-09-26T20:54:55.198Z,35.35
2022-09-26T20:58:57.100Z,32.67
2022-09-26T21:02:58.996Z,33.63
2022-09-26T21:07:00.810Z,24.10
2022-09-26T21:11:02.908Z,26.90
2022-09-26T21:15:04.785Z,24.65
2022-09-26T21:19:09.407Z,26.88
2022-09-26T21:23:11.162Z,24.50
2022-09-26T21:27:13.349Z,22.52
2022-09-26T21:31:22.293Z,21.88
2022-09-26T21:35:30.715Z,21.17
2022-09-26T21:39:32.526Z,19.05
2022-09-26T21:43:38.173Z,24.42
2022-09-26T21:47:40.354Z,22.67
2022-09-26T21:51:44.374Z,24.52
2022-09-26T21:55:52.833Z,25.15
2022-09-26T21:59:55.788Z,30.80
2022-09-26T22:03:58.459Z,34.25
2022-09-26T22:08:00.552Z,27.70
2022-09-26T22:12:02.430Z,37.03
2022-09-26T22:16:09.093Z,33.45
2022-09-26T22:20:11.659Z,34.60
2022-09-26T22:24:13.619Z,38.28
2022-09-26T22:28:15.276Z,38.42
2022-09-26T22:32:17.121Z,29.30
2022-09-26T22:36:18.909Z,35.65
2022-09-26T22:40:20.754Z,29.13
2022-09-26T22:44:22.541Z,29.63
2022-09-26T22:48:24.478Z,31.17
2022-09-26T22:52:26.065Z,28.80
2022-09-26T22:56:27.865Z,29.88
2022-09-26T23:00:29.604Z,32.00
2022-09-26T23:04:46.820Z,28.17
2022-09-26T23:08:49.073Z,33.75
2022-09-26T23:12:51.145Z,30.73
2022-09-26T23:16:52.813Z,32.53
2022-09-26T23:20:54.644Z,33.50
2022-09-26T23:24:56.494Z,35.85
2022-09-26T23:28:59.292Z,33.45
2022-09-26T23:33:01.065Z,32.00
2022-09-26T23:37:02.930Z,39.65
2022-09-26T23:41:06.663Z,34.47
2022-09-26T23:45:08.912Z,33.55
2022-09-26T23:49:10.707Z,30.45
2022-09-26T23:53:13.774Z,32.13
2022-09-26T23:57:15.435Z,33.10
